Pagina principale
METAR-TAF:

METAR-TAF

Aeroporti :

Aeroporto di Lubiana-Brnik

Lubiana, Slovenia

latitudine: 46-13N, longitudine: 014-29E, altezza: 385 m

Osservazione

Il bollettino è stato emesso 39 minuti fa, alle 11:00 UTC
Vento 5 kt da est/sud-est, variando fra est/nord-est e sud/sud-ovest
Temperature 21°C
Umidità 33%
Pressione 1027 hPa
Visibilità 10 km o più
nessuna nube inferiore a 1500 m e nessun cumulonembo

METAR: LJLJ 191100Z 12005KT 070V210 CAVOK 21/04 Q1027 NOSIG

Ora: 13:39 (11:39 UTC)

Previsione

Il bollettino è stato emesso 6 ore e 39 minuti fa, alle 05:00 UTC
Previsione valida dal 19 alle 06 UTC al 20 alle 06 UTC
Vento 2 kt da direzioni variabili
Visibilità 10 km o più
nessuna nube inferiore a 1500 m e nessun cumulonembo

TAF: LJLJ 190500Z 1906/2006 VRB02KT CAVOK

Osservazioni e previsioni meteorologiche di più di 4000 aeroporti (messaggi METAR e TAF).

Le stazioni disponibili sono rappresentate dai dischi gialli e rossi sulla carta.

Puntare il mouse per vedere il nome della stazione.

Clicca sopra per visualizzare le osservazioni e previsioni meteorologiche.

Per cambiare la mappa : fare clic sui pulsanti verdi con una croce nera per ingrandire, il pulsante verde con un trattino per diminuire, o sulla freccia verde per le mappe adiacenti.


METAR-TAF: